This is the latest recevied weather packets stored in our database for station/object YO6KXQ-10. If no packets are shown the sender has not sent any weather packets the latest 1 day(s).
| Time | Temp. | Humidity | Pressure | Rain* | Wind** | Luminosity | Snow |
|---|---|---|---|---|---|---|---|
| 1778107707 | 20° C | 47% | 1018.6 hPa | - | - | - | - |
| 1778106687 | 20° C | 47% | 1018.7 hPa | - | - | - | - |
| 1778102606 | 20.56° C | 45% | 1018.3 hPa | - | - | - | - |
| 1778101586 | 20.56° C | 44% | 1018.3 hPa | - | - | - | - |
| 1778100566 | 20.56° C | 44% | 1018.1 hPa | - | - | - | - |
| 1778097505 | 21.11° C | 42% | 1017.9 hPa | - | - | - | - |
| 1778095465 | 21.11° C | 41% | 1017.8 hPa | - | - | - | - |
| 1778094445 | 21.11° C | 41% | 1017.8 hPa | - | - | - | - |
| 1778091384 | 21.67° C | 42% | 1017.4 hPa | - | - | - | - |
| 1778089344 | 22.22° C | 41% | 1017 hPa | - | - | - | - |
| 1778084243 | 22.78° C | 38% | 1016.8 hPa | - | - | - | - |
| 1778083223 | 22.78° C | 37% | 1016.7 hPa | - | - | - | - |
| 1778078121 | 22.22° C | 36% | 1017 hPa | - | - | - | - |
| 1778077101 | 22.22° C | 36% | 1016.9 hPa | - | - | - | - |
| 1778073020 | 21.11° C | 40% | 1017 hPa | - | - | - | - |
| 1778070980 | 20.56° C | 40% | 1016.9 hPa | - | - | - | - |
| 1778066899 | 20.56° C | 45% | 1017.4 hPa | - | - | - | - |
| 1778065879 | 20.56° C | 46% | 1017.6 hPa | - | - | - | - |
| 1778064859 | 20° C | 46% | 1017.6 hPa | - | - | - | - |
| 1778060778 | 20° C | 49% | 1018.4 hPa | - | - | - | - |
| 1778059758 | 20° C | 49% | 1018.5 hPa | - | - | - | - |
| 1778058738 | 20° C | 49% | 1018.5 hPa | - | - | - | - |
| 1778057718 | 20° C | 50% | 1018.7 hPa | - | - | - | - |
| 1778053637 | 18.89° C | 50% | 1018.6 hPa | - | - | - | - |
| 1778052617 | 18.89° C | 47% | 1018.8 hPa | - | - | - | - |
* Rain since midnight (hover to see other rain measurements)
** Current wind speed in m/s (hover to see current wind gust speed)